Time;durP1;ratioP1;P1;durP2;ratioP2;P2;SDS_P1;SDS_P2;PMS_P1;PMS_P2;Temp;Humidity;BMP_temperature;BMP_pressure;BME280_temperature;BME280_humidity;BME280_pressure;Samples;Min_cycle;Max_cycle;Signal;HPM_P1;HPM_P2
2021/08/07 00:01:23;;;;;;;0.22;0.22;;;;;;;19.31;65.98;98095.44;5150535;27;20033;-62
2021/08/07 00:03:49;;;;;;;1.60;0.30;;;;;;;19.32;65.89;98094.34;5154101;27;20070;-63
2021/08/07 00:06:14;;;;;;;1.25;0.50;;;;;;;19.32;66.06;98104.25;5150035;27;20508;-63
2021/08/07 00:08:40;;;;;;;0.70;0.32;;;;;;;19.32;65.96;98101.56;5154111;27;20022;-63
2021/08/07 00:11:06;;;;;;;1.38;0.40;;;;;;;19.33;66.07;98100.53;5152428;27;20404;-60
2021/08/07 00:13:31;;;;;;;2.28;0.40;;;;;;;19.33;65.90;98097.84;5153777;27;20026;-62
2021/08/07 00:15:57;;;;;;;1.10;0.40;;;;;;;19.33;65.94;98100.53;5135538;27;20035;-62
2021/08/07 00:18:23;;;;;;;2.30;0.40;;;;;;;19.33;66.03;98105.88;5153905;27;20030;-63
2021/08/07 00:20:49;;;;;;;0.80;0.50;;;;;;;19.32;66.02;98107.75;5153794;27;20392;-62
2021/08/07 00:23:15;;;;;;;2.00;0.60;;;;;;;19.32;65.91;98106.94;5153759;27;20034;-62
2021/08/07 00:25:41;;;;;;;2.60;0.50;;;;;;;19.32;65.93;98101.56;5131665;27;20047;-62
2021/08/07 00:28:06;;;;;;;1.83;0.70;;;;;;;19.31;66.02;98099.97;5130572;27;20035;-61
2021/08/07 00:30:32;;;;;;;2.08;0.40;;;;;;;19.30;66.09;98101.84;5132902;27;20057;-62
2021/08/07 00:32:58;;;;;;;1.08;0.40;;;;;;;19.30;65.99;98106.41;5131762;27;20102;-62
2021/08/07 00:35:24;;;;;;;1.05;0.45;;;;;;;19.30;66.12;98111.75;5131644;27;20490;-62
2021/08/07 00:37:52;;;;;;;1.05;0.50;;;;;;;19.31;66.11;98108.00;5131460;27;20096;-63
2021/08/07 00:40:17;;;;;;;1.88;0.60;;;;;;;19.30;66.14;98115.22;5131545;27;20024;-62
2021/08/07 00:42:48;;;;;;;3.42;0.47;;;;;;;19.29;66.18;98112.81;5115124;27;20511;-62
2021/08/07 00:45:23;;;;;;;1.00;0.60;;;;;;;19.29;66.02;98115.50;5128490;27;20027;-62
2021/08/07 00:47:56;;;;;;;1.15;0.60;;;;;;;19.28;66.27;98112.03;5132261;27;20027;-63
2021/08/07 00:50:22;;;;;;;2.20;0.50;;;;;;;19.29;66.21;98112.81;5127089;27;20023;-63
2021/08/07 00:52:49;;;;;;;2.88;0.63;;;;;;;19.28;66.20;98117.38;5131060;27;20058;-63
2021/08/07 00:55:20;;;;;;;2.92;0.60;;;;;;;19.28;66.11;98116.56;5131022;27;20493;-63
2021/08/07 00:57:46;;;;;;;1.05;0.80;;;;;;;19.27;66.15;98118.44;5131098;27;20512;-63
2021/08/07 01:00:16;;;;;;;1.17;0.75;;;;;;;19.26;66.14;98110.66;5130860;27;20120;-63
2021/08/07 01:02:56;;;;;;;1.27;0.70;;;;;;;19.26;66.14;98113.34;5127543;27;20032;-62
2021/08/07 01:05:30;;;;;;;1.45;0.55;;;;;;;19.27;66.07;98121.09;5130761;27;20031;-64
2021/08/07 01:08:16;;;;;;;2.15;0.80;;;;;;;19.26;66.25;98107.97;5127018;27;20382;-63
2021/08/07 01:11:01;;;;;;;1.38;0.82;;;;;;;19.26;66.13;98114.16;5130822;27;20554;-63
2021/08/07 01:13:57;;;;;;;1.40;0.63;;;;;;;19.25;66.16;98109.06;5130846;27;20055;-63
2021/08/07 01:16:28;;;;;;;1.40;0.80;;;;;;;19.24;66.18;98110.13;5130000;27;20035;-63
2021/08/07 01:19:00;;;;;;;3.13;1.10;;;;;;;19.23;66.23;98112.00;5126475;27;20055;-63
2021/08/07 01:21:36;;;;;;;2.05;1.00;;;;;;;19.24;66.15;98107.44;5110016;28;20393;-63
2021/08/07 01:24:09;;;;;;;2.10;1.15;;;;;;;19.22;66.18;98110.38;5129766;27;20027;-62
2021/08/07 01:27:00;;;;;;;2.60;1.30;;;;;;;19.24;66.12;98112.81;5133897;27;20396;-63
2021/08/07 01:29:28;;;;;;;3.38;1.20;;;;;;;19.24;66.12;98120.84;5131826;27;20019;-64
2021/08/07 01:32:01;;;;;;;2.88;1.20;;;;;;;19.21;66.23;98117.59;5131415;27;20027;-63
2021/08/07 01:34:44;;;;;;;1.95;0.90;;;;;;;19.21;66.13;98125.63;5138923;27;20031;-63
2021/08/07 01:37:18;;;;;;;3.95;0.98;;;;;;;19.21;66.15;98122.97;5140585;27;20041;-64
2021/08/07 01:39:54;;;;;;;3.40;1.10;;;;;;;19.20;66.08;98126.72;5135199;27;20510;-63
2021/08/07 01:42:27;;;;;;;2.87;1.13;;;;;;;19.20;66.13;98121.34;5135149;27;20038;-64
2021/08/07 01:44:55;;;;;;;3.03;1.45;;;;;;;19.20;66.16;98120.53;5134973;27;20466;-64
2021/08/07 01:47:48;;;;;;;2.90;1.30;;;;;;;19.21;66.12;98122.13;5134992;27;20110;-64
2021/08/07 01:50:30;;;;;;;3.53;1.13;;;;;;;19.19;66.20;98122.41;5145120;27;20035;-64
2021/08/07 01:53:04;;;;;;;2.80;1.50;;;;;;;19.18;66.21;98120.78;5152092;27;20035;-64
2021/08/07 01:55:37;;;;;;;3.97;1.40;;;;;;;19.18;66.19;98123.47;5151841;27;20106;-64
2021/08/07 01:58:23;;;;;;;2.22;1.40;;;;;;;19.19;66.18;98129.66;5151996;27;20968;-63
2021/08/07 02:00:49;;;;;;;4.45;1.40;;;;;;;19.19;65.93;98124.28;5144949;27;20046;-64
2021/08/07 02:03:25;;;;;;;2.65;1.35;;;;;;;19.17;66.16;98132.59;5131268;27;20035;-64
2021/08/07 02:05:52;;;;;;;5.97;1.40;;;;;;;19.17;66.23;98131.78;5131205;27;20099;-64
2021/08/07 02:08:18;;;;;;;4.07;1.45;;;;;;;19.17;66.52;98126.41;5133421;27;20030;-63
2021/08/07 02:10:52;;;;;;;2.17;1.40;;;;;;;19.17;66.20;98126.41;5134641;27;20544;-63
2021/08/07 02:13:21;;;;;;;5.18;1.40;;;;;;;19.17;66.19;98129.91;5134617;27;20035;-63
2021/08/07 02:15:52;;;;;;;3.20;1.67;;;;;;;19.17;66.17;98129.09;5153143;27;20114;-64
2021/08/07 02:18:25;;;;;;;3.03;1.95;;;;;;;19.14;66.20;98127.75;5134668;27;20109;-63
2021/08/07 02:20:53;;;;;;;4.20;1.92;;;;;;;19.15;66.29;98124.00;5134494;27;20110;-64
2021/08/07 02:23:21;;;;;;;3.30;1.55;;;;;;;19.15;66.40;98125.84;5151753;27;20078;-62
2021/08/07 02:26:07;;;;;;;2.92;1.65;;;;;;;19.14;66.34;98121.56;5151507;27;20043;-63
2021/08/07 02:28:41;;;;;;;4.65;1.98;;;;;;;19.14;66.37;98130.44;5151857;27;20045;-63
2021/08/07 02:31:11;;;;;;;2.75;1.85;;;;;;;19.12;66.29;98124.50;5134184;27;20084;-63
2021/08/07 02:33:42;;;;;;;4.85;2.05;;;;;;;19.14;66.24;98124.25;5151745;27;20030;-61
2021/08/07 02:36:13;;;;;;;2.80;2.00;;;;;;;19.13;66.28;98128.78;5151538;27;20034;-63
2021/08/07 02:38:40;;;;;;;4.43;2.05;;;;;;;19.12;66.25;98121.84;5151771;27;20027;-63
2021/08/07 02:41:07;;;;;;;4.03;1.80;;;;;;;19.12;66.46;98129.06;5152768;27;20027;-62
2021/08/07 02:43:39;;;;;;;3.58;1.90;;;;;;;19.13;66.42;98123.44;5151948;27;20037;-63
2021/08/07 02:46:06;;;;;;;3.50;2.17;;;;;;;19.13;66.19;98119.97;5151449;27;20034;-63
2021/08/07 02:48:34;;;;;;;3.28;2.05;;;;;;;19.12;66.26;98129.06;5134658;27;20053;-63
2021/08/07 02:51:01;;;;;;;6.20;2.28;;;;;;;19.12;66.18;98131.72;5151505;27;20342;-63
2021/08/07 02:53:32;;;;;;;2.60;1.95;;;;;;;19.11;66.46;98132.81;5151462;27;20031;-63
2021/08/07 02:55:59;;;;;;;3.97;1.88;;;;;;;19.11;66.26;98138.16;5151484;27;20058;-63
2021/08/07 02:58:28;;;;;;;3.70;2.22;;;;;;;19.09;66.33;98133.06;5151417;27;20031;-63
2021/08/07 03:00:54;;;;;;;4.50;2.25;;;;;;;19.09;66.14;98133.88;5137014;27;20161;-63
2021/08/07 03:03:23;;;;;;;8.68;2.75;;;;;;;19.08;66.43;98132.22;5134393;27;20027;-63
2021/08/07 03:05:51;;;;;;;4.93;2.25;;;;;;;19.09;66.28;98128.53;5133949;27;20038;-63
2021/08/07 03:08:17;;;;;;;4.85;2.38;;;;;;;19.09;66.34;98128.53;5137650;27;20507;-62
2021/08/07 03:10:47;;;;;;;4.78;2.50;;;;;;;19.08;66.43;98131.41;5137977;27;20069;-63
2021/08/07 03:13:17;;;;;;;3.63;2.10;;;;;;;19.08;66.33;98123.38;5138215;27;20027;-63
2021/08/07 03:15:43;;;;;;;2.67;1.88;;;;;;;19.07;66.32;98127.94;5138197;27;20492;-63
2021/08/07 03:18:10;;;;;;;4.80;2.40;;;;;;;19.07;66.33;98127.13;5138288;27;20452;-61
2021/08/07 03:20:38;;;;;;;3.97;2.22;;;;;;;19.08;66.32;98131.41;5137906;27;20515;-60
2021/08/07 03:23:09;;;;;;;5.35;2.72;;;;;;;19.06;66.30;98123.63;5138025;27;20035;-62
2021/08/07 03:25:38;;;;;;;4.53;2.65;;;;;;;19.05;66.32;98131.91;5137567;27;20057;-62
2021/08/07 03:28:10;;;;;;;3.67;2.42;;;;;;;19.07;66.26;98132.47;5137686;27;20377;-62
2021/08/07 03:30:38;;;;;;;7.93;2.90;;;;;;;19.06;66.46;98130.88;5120499;27;20026;-62
2021/08/07 03:33:04;;;;;;;2.90;2.10;;;;;;;19.05;66.33;98135.41;5137545;27;20069;-62
2021/08/07 03:35:30;;;;;;;6.97;2.50;;;;;;;19.06;66.44;98136.22;5148119;27;20102;-62
2021/08/07 03:37:56;;;;;;;6.10;2.28;;;;;;;19.05;66.35;98130.06;5156085;27;20027;-62
2021/08/07 03:40:22;;;;;;;4.47;2.20;;;;;;;19.06;66.40;98133.56;5154466;27;20042;-63
2021/08/07 03:42:50;;;;;;;3.58;2.33;;;;;;;19.03;66.61;98131.38;5154771;27;20031;-63
2021/08/07 03:45:21;;;;;;;7.15;2.63;;;;;;;19.03;66.52;98139.41;5154451;27;20066;-63
2021/08/07 03:47:52;;;;;;;4.68;2.53;;;;;;;19.03;66.46;98136.75;5154725;27;20081;-63
2021/08/07 03:50:22;;;;;;;5.30;2.95;;;;;;;19.01;66.52;98134.31;5151960;27;20022;-63
2021/08/07 03:52:48;;;;;;;5.57;2.72;;;;;;;19.02;66.43;98145.81;5137282;27;20625;-63
2021/08/07 03:55:16;;;;;;;3.78;2.80;;;;;;;19.02;66.44;98143.97;5137462;27;20023;-62
2021/08/07 03:58:00;;;;;;;3.78;2.90;;;;;;;19.03;66.41;98140.22;5137111;27;20059;-63
2021/08/07 04:00:36;;;;;;;3.90;2.78;;;;;;;19.01;66.46;98155.75;5148604;27;20109;-63
2021/08/07 04:03:02;;;;;;;4.68;2.70;;;;;;;19.00;66.32;98143.41;5154352;27;20034;-63
2021/08/07 04:05:28;;;;;;;3.92;2.47;;;;;;;19.01;66.40;98150.38;5154030;27;20054;-63
2021/08/07 04:08:04;;;;;;;3.85;2.55;;;;;;;19.01;66.51;98153.06;5154300;27;20095;-63
2021/08/07 04:10:30;;;;;;;3.45;2.33;;;;;;;19.01;66.51;98146.88;5154136;27;20484;-63
2021/08/07 04:12:57;;;;;;;5.13;2.60;;;;;;;18.98;66.26;98145.53;5136881;27;20130;-63
2021/08/07 04:15:24;;;;;;;5.28;2.42;;;;;;;18.99;66.28;98154.34;5154041;27;20030;-62
2021/08/07 04:17:49;;;;;;;4.28;2.45;;;;;;;19.00;66.47;98145.28;5154874;27;20034;-63
2021/08/07 04:20:15;;;;;;;4.65;2.50;;;;;;;18.99;66.49;98146.34;5155249;27;20035;-64
2021/08/07 04:22:41;;;;;;;5.15;2.38;;;;;;;18.99;66.39;98143.66;5153902;27;20039;-63
2021/08/07 04:25:08;;;;;;;4.60;2.72;;;;;;;18.97;66.37;98152.75;5153670;27;20129;-62
2021/08/07 04:27:38;;;;;;;5.63;2.78;;;;;;;18.96;66.40;98150.34;5153887;27;20408;-63
2021/08/07 04:30:06;;;;;;;5.95;2.88;;;;;;;18.98;66.34;98156.25;5153713;27;20038;-62
2021/08/07 04:32:32;;;;;;;5.10;2.65;;;;;;;18.98;66.48;98145.53;5153835;27;20080;-63
2021/08/07 04:35:05;;;;;;;5.07;2.65;;;;;;;18.97;66.49;98147.41;5129639;27;20033;-63
2021/08/07 04:37:31;;;;;;;6.55;2.92;;;;;;;18.95;66.44;98154.09;5165449;27;20076;-63
2021/08/07 04:39:57;;;;;;;3.65;2.55;;;;;;;18.95;66.44;98148.75;5146415;27;20018;-63
2021/08/07 04:42:25;;;;;;;5.15;2.80;;;;;;;18.94;66.43;98150.59;5127727;27;20564;-63
2021/08/07 04:44:50;;;;;;;4.53;3.10;;;;;;;18.95;66.30;98151.41;5146888;27;20034;-64
2021/08/07 04:47:16;;;;;;;3.47;2.25;;;;;;;18.95;66.26;98154.09;5146270;27;20023;-63
2021/08/07 04:49:42;;;;;;;6.07;2.90;;;;;;;18.91;66.33;98156.47;5145641;27;20034;-63
2021/08/07 04:52:08;;;;;;;4.80;3.28;;;;;;;18.93;66.40;98165.06;5142409;27;20019;-64
2021/08/07 04:54:36;;;;;;;7.68;3.22;;;;;;;18.93;66.30;98161.56;5145957;27;20777;-63
2021/08/07 04:57:02;;;;;;;3.95;2.65;;;;;;;18.92;66.15;98163.41;5146922;27;20026;-63
2021/08/07 04:59:28;;;;;;;4.80;2.55;;;;;;;18.93;66.33;98162.38;5122091;27;20037;-63
2021/08/07 05:01:54;;;;;;;5.40;3.20;;;;;;;18.91;66.23;98166.34;5142838;27;20061;-63
2021/08/07 05:04:20;;;;;;;3.67;2.63;;;;;;;18.92;66.28;98168.78;5146396;27;20023;-63
2021/08/07 05:06:48;;;;;;;3.65;2.65;;;;;;;18.93;66.18;98175.75;5141815;27;20512;-63
2021/08/07 05:09:15;;;;;;;4.00;2.72;;;;;;;18.92;66.30;98171.44;5145678;27;20038;-62
2021/08/07 05:12:01;;;;;;;3.25;2.50;;;;;;;18.91;66.29;98169.03;5163603;27;20034;-62
2021/08/07 05:14:26;;;;;;;4.22;2.90;;;;;;;18.90;66.38;98170.09;5144775;27;20030;-62
2021/08/07 05:16:52;;;;;;;4.40;2.65;;;;;;;18.91;66.31;98171.72;5148999;27;20034;-62
2021/08/07 05:19:18;;;;;;;5.75;2.88;;;;;;;18.90;66.38;98176.28;5146059;27;20124;-62
2021/08/07 05:21:44;;;;;;;3.70;2.55;;;;;;;18.90;66.28;98170.91;5127078;27;20023;-62
2021/08/07 05:24:10;;;;;;;4.55;2.30;;;;;;;18.89;66.27;98174.63;5146168;27;20042;-63
2021/08/07 05:26:35;;;;;;;4.82;2.90;;;;;;;18.88;66.22;98174.91;5164031;27;20062;-62
2021/08/07 05:29:01;;;;;;;3.92;2.40;;;;;;;18.88;66.33;98180.25;5139917;27;20022;-62
2021/08/07 05:31:28;;;;;;;4.25;2.58;;;;;;;18.89;66.22;98177.31;5125942;27;20046;-62
2021/08/07 05:33:54;;;;;;;4.15;2.75;;;;;;;18.89;65.95;98188.03;5144337;27;20475;-63
2021/08/07 05:36:20;;;;;;;5.97;2.40;;;;;;;18.88;66.32;98189.09;5146370;27;20034;-62
2021/08/07 05:38:45;;;;;;;3.88;2.65;;;;;;;18.88;66.34;98182.94;5145906;27;20030;-62
2021/08/07 05:41:11;;;;;;;4.85;2.50;;;;;;;18.87;66.25;98176.78;5163840;27;20027;-62
2021/08/07 05:43:41;;;;;;;3.83;2.60;;;;;;;18.88;66.18;98181.06;5126822;27;20027;-62
2021/08/07 05:46:07;;;;;;;5.55;2.30;;;;;;;18.88;66.15;98188.28;5143710;27;20035;-62
2021/08/07 05:48:33;;;;;;;3.15;2.28;;;;;;;18.87;66.13;98184.00;5144379;27;20031;-62
2021/08/07 05:51:00;;;;;;;2.83;2.20;;;;;;;18.86;66.15;98188.53;5145926;27;20027;-62
2021/08/07 05:53:26;;;;;;;3.83;2.05;;;;;;;18.84;66.23;98185.31;5124183;27;20067;-62
2021/08/07 05:55:55;;;;;;;3.35;1.95;;;;;;;18.83;66.30;98183.69;5140406;27;20057;-62
2021/08/07 05:58:22;;;;;;;3.97;2.30;;;;;;;18.84;66.17;98185.31;5116011;27;20034;-61
2021/08/07 06:00:48;;;;;;;3.88;2.30;;;;;;;18.83;66.18;98191.72;5120755;27;20053;-61
2021/08/07 06:03:14;;;;;;;4.40;2.55;;;;;;;18.81;66.12;98189.31;5134747;27;20038;-61
2021/08/07 06:05:45;;;;;;;4.43;2.35;;;;;;;18.82;66.33;98184.75;5134719;27;20492;-61
2021/08/07 06:08:10;;;;;;;4.60;2.47;;;;;;;18.80;66.36;98193.03;5153191;27;20034;-61
2021/08/07 06:10:37;;;;;;;4.47;2.28;;;;;;;18.80;66.42;98193.03;5134530;27;20031;-61
2021/08/07 06:13:04;;;;;;;3.33;2.42;;;;;;;18.80;66.41;98192.22;5134474;27;20049;-61
2021/08/07 06:15:30;;;;;;;4.38;2.28;;;;;;;18.80;66.36;98194.91;5134536;27;20038;-61
2021/08/07 06:17:56;;;;;;;4.20;2.00;;;;;;;18.80;66.30;98203.75;5134452;27;20388;-61
2021/08/07 06:20:23;;;;;;;3.30;1.77;;;;;;;18.81;66.39;98205.34;5134923;27;20031;-61
2021/08/07 06:22:51;;;;;;;2.85;1.92;;;;;;;18.80;66.30;98209.09;5134224;27;20283;-62
2021/08/07 06:25:17;;;;;;;3.05;1.90;;;;;;;18.80;66.46;98221.66;5117040;27;20042;-62
2021/08/07 06:27:45;;;;;;;3.70;1.90;;;;;;;18.80;66.37;98214.47;5134695;27;20035;-62
2021/08/07 06:30:11;;;;;;;3.97;2.25;;;;;;;18.80;66.19;98216.31;5152812;27;20249;-61
2021/08/07 06:32:37;;;;;;;5.38;2.53;;;;;;;18.80;66.30;98210.97;5134396;27;20043;-61
2021/08/07 06:35:04;;;;;;;4.50;1.98;;;;;;;18.79;66.31;98220.84;5123722;27;20031;-61
2021/08/07 06:37:29;;;;;;;5.15;2.13;;;;;;;18.79;66.28;98214.72;5151633;27;20374;-61
2021/08/07 06:39:56;;;;;;;3.63;1.73;;;;;;;18.77;66.29;98222.16;5151595;27;20027;-62
2021/08/07 06:42:22;;;;;;;3.05;2.05;;;;;;;18.77;66.47;98217.63;5155374;27;20030;-61
2021/08/07 06:45:19;;;;;;;2.83;2.00;;;;;;;18.78;66.30;98224.59;5141464;27;20070;-61
2021/08/07 06:47:45;;;;;;;3.83;2.08;;;;;;;18.77;66.31;98220.31;5156082;27;20046;-61
2021/08/07 06:50:11;;;;;;;4.50;2.22;;;;;;;18.76;66.23;98225.91;5157349;27;20396;-61
2021/08/07 06:52:37;;;;;;;4.35;1.98;;;;;;;18.77;66.41;98216.81;5155709;27;20043;-62
2021/08/07 06:55:03;;;;;;;3.53;2.10;;;;;;;18.75;66.47;98224.28;5155709;27;20473;-62
2021/08/07 06:57:30;;;;;;;3.65;2.03;;;;;;;18.77;66.25;98219.50;5155811;27;20026;-62
2021/08/07 06:59:56;;;;;;;6.18;2.42;;;;;;;18.77;66.33;98223.00;5155603;27;20488;-62
2021/08/07 07:02:22;;;;;;;5.07;1.70;;;;;;;18.78;66.32;98223.78;5138413;27;20034;-62
2021/08/07 07:04:49;;;;;;;2.22;1.80;;;;;;;18.77;66.26;98223.00;5138239;27;20096;-61
2021/08/07 07:07:17;;;;;;;2.42;1.65;;;;;;;18.75;66.24;98219.75;5138392;27;20348;-62
2021/08/07 07:09:43;;;;;;;3.13;1.88;;;;;;;18.75;66.33;98218.94;5138236;27;20281;-62
2021/08/07 07:12:09;;;;;;;3.38;1.90;;;;;;;18.74;66.25;98223.50;5138116;27;20026;-62
2021/08/07 07:14:34;;;;;;;3.97;1.85;;;;;;;18.75;66.27;98233.13;5156351;27;20027;-62
2021/08/07 07:17:01;;;;;;;3.60;1.80;;;;;;;18.74;66.13;98239.56;5155560;27;20400;-62
2021/08/07 07:19:30;;;;;;;3.20;1.77;;;;;;;18.75;66.24;98237.66;5155226;27;20066;-62
2021/08/07 07:21:56;;;;;;;3.35;1.90;;;;;;;18.72;66.34;98247.84;5155039;27;20500;-62
2021/08/07 07:24:23;;;;;;;3.70;2.03;;;;;;;18.69;66.22;98243.00;5149663;27;20038;-62
2021/08/07 07:26:49;;;;;;;3.70;1.70;;;;;;;18.72;66.23;98242.47;5147309;27;20507;-62
2021/08/07 07:29:14;;;;;;;3.72;1.80;;;;;;;18.69;66.15;98245.66;5146838;27;20042;-62
2021/08/07 07:31:41;;;;;;;2.70;1.65;;;;;;;18.71;66.23;98251.56;5148785;27;20118;-62
2021/08/07 07:34:08;;;;;;;3.25;1.67;;;;;;;18.72;66.33;98255.88;5146956;27;20388;-63
2021/08/07 07:36:34;;;;;;;1.70;1.20;;;;;;;18.71;66.34;98250.75;5139169;27;20038;-63
2021/08/07 07:39:01;;;;;;;3.67;1.20;;;;;;;18.70;66.09;98260.66;5120165;27;20415;-62
2021/08/07 07:41:26;;;;;;;3.35;1.48;;;;;;;18.68;66.40;98261.97;5137450;27;20037;-62
2021/08/07 07:43:52;;;;;;;4.32;1.40;;;;;;;18.65;66.37;98268.63;5137526;27;20035;-62
2021/08/07 07:46:18;;;;;;;2.03;1.33;;;;;;;18.69;66.30;98269.75;5137249;27;20049;-60
2021/08/07 07:48:44;;;;;;;2.90;1.13;;;;;;;18.67;66.53;98263.00;5138263;27;20392;-62
2021/08/07 07:51:13;;;;;;;3.00;1.50;;;;;;;18.69;66.23;98272.41;5137071;27;20597;-62
2021/08/07 07:53:38;;;;;;;1.73;1.30;;;;;;;18.70;66.22;98271.34;5136672;27;20027;-62
2021/08/07 07:56:05;;;;;;;4.30;1.27;;;;;;;18.69;66.39;98269.75;5119609;27;20125;-62
2021/08/07 07:58:31;;;;;;;1.70;1.27;;;;;;;18.68;66.34;98268.13;5137124;27;20035;-62
2021/08/07 08:00:57;;;;;;;2.35;1.20;;;;;;;18.69;66.25;98274.28;5133401;27;20031;-62
2021/08/07 08:03:23;;;;;;;1.45;1.20;;;;;;;18.69;66.38;98267.06;5135111;27;20031;-62
2021/08/07 08:05:49;;;;;;;2.45;1.30;;;;;;;18.71;66.44;98277.53;5133533;27;20530;-62
2021/08/07 08:08:15;;;;;;;1.20;1.10;;;;;;;18.70;66.33;98276.69;5133724;27;20489;-62
2021/08/07 08:10:41;;;;;;;1.77;1.15;;;;;;;18.71;66.24;98277.53;5134767;27;20489;-62
2021/08/07 08:13:12;;;;;;;2.03;1.30;;;;;;;18.71;66.29;98272.16;5136691;27;20026;-62
2021/08/07 08:15:40;;;;;;;1.85;1.25;;;;;;;18.71;66.29;98277.53;5136161;27;20390;-62
2021/08/07 08:18:11;;;;;;;6.40;1.20;;;;;;;18.72;67.05;98281.81;5130983;27;20023;-66
2021/08/07 08:20:39;;;;;;;5.57;1.33;;;;;;;18.73;67.86;98275.38;5130651;27;20035;-60
2021/08/07 08:23:06;;;;;;;3.42;1.40;;;;;;;18.74;68.08;98285.03;5130823;27;20055;-66
2021/08/07 08:25:32;;;;;;;10.85;1.17;;;;;;;18.75;68.17;98288.50;5136277;27;20050;-63
2021/08/07 08:27:58;;;;;;;2.78;1.38;;;;;;;18.74;68.38;98281.56;5154651;27;20466;-58
2021/08/07 08:30:26;;;;;;;5.20;1.45;;;;;;;18.76;68.03;98279.44;5130547;27;20066;-62
2021/08/07 08:32:53;;;;;;;3.05;1.33;;;;;;;18.76;67.77;98276.75;5136027;27;20506;-61
2021/08/07 08:35:19;;;;;;;5.03;1.45;;;;;;;18.73;67.57;98275.38;5144991;27;20050;-62
2021/08/07 08:37:46;;;;;;;4.07;1.55;;;;;;;18.77;67.34;98286.41;5135757;27;20035;-63
2021/08/07 08:40:13;;;;;;;5.43;1.40;;;;;;;18.75;67.22;98281.31;5132545;27;20485;-62
2021/08/07 08:42:40;;;;;;;3.00;1.30;;;;;;;18.73;67.13;98278.06;5136032;27;20126;-62
2021/08/07 08:45:07;;;;;;;3.25;1.30;;;;;;;18.74;67.12;98285.03;5135065;27;20041;-61
2021/08/07 08:47:36;;;;;;;5.22;1.50;;;;;;;18.74;67.12;98281.56;5144347;27;20034;-63
2021/08/07 08:50:04;;;;;;;4.47;1.20;;;;;;;18.74;67.15;98286.91;5148712;27;20026;-62
2021/08/07 08:52:31;;;;;;;2.55;1.08;;;;;;;18.74;67.12;98281.56;5165589;27;20023;-62
2021/08/07 08:54:58;;;;;;;7.80;1.48;;;;;;;18.71;67.25;98280.97;5148381;27;20049;-63
2021/08/07 08:57:24;;;;;;;2.85;1.25;;;;;;;18.73;67.19;98286.09;5133650;27;20118;-63
2021/08/07 08:59:50;;;;;;;3.92;1.25;;;;;;;18.68;67.39;98286.84;5134241;27;20114;-62
2021/08/07 09:02:17;;;;;;;3.63;1.15;;;;;;;18.69;67.37;98271.59;5128196;27;20046;-63
2021/08/07 09:04:43;;;;;;;4.45;1.45;;;;;;;18.72;67.30;98287.97;5129723;27;20034;-63
2021/08/07 09:07:14;;;;;;;4.90;1.17;;;;;;;18.72;67.20;98279.94;5135698;27;20058;-62
2021/08/07 09:09:42;;;;;;;5.75;1.48;;;;;;;18.74;67.21;98285.03;5135415;27;20035;-62
2021/08/07 09:12:13;;;;;;;4.28;1.10;;;;;;;18.72;67.25;98279.94;5135668;27;20627;-63
2021/08/07 09:14:43;;;;;;;3.40;1.20;;;;;;;18.71;67.53;98283.66;5118348;27;20477;-63
2021/08/07 09:17:11;;;;;;;2.92;1.35;;;;;;;18.67;67.41;98282.56;5135498;27;20041;-62
2021/08/07 09:19:40;;;;;;;6.45;1.45;;;;;;;18.66;67.49;98297.00;5134978;27;20061;-62
2021/08/07 09:22:41;;;;;;;2.75;0.98;;;;;;;18.64;67.84;98284.91;5153878;27;20034;-62
2021/08/07 09:25:08;;;;;;;2.90;1.05;;;;;;;18.64;67.72;98293.75;5134739;27;20115;-62
2021/08/07 09:27:42;;;;;;;3.72;1.38;;;;;;;18.58;67.96;98295.59;5152402;27;20470;-62
2021/08/07 09:30:17;;;;;;;2.42;1.15;;;;;;;18.63;67.81;98292.16;5134987;27;20043;-61
2021/08/07 09:32:50;;;;;;;2.63;1.00;;;;;;;18.63;67.67;98294.84;5153072;27;20034;-61
2021/08/07 09:35:24;;;;;;;3.63;1.48;;;;;;;18.60;67.81;98298.81;5142953;27;20242;-61
2021/08/07 09:38:02;;;;;;;5.38;1.08;;;;;;;18.55;68.04;98290.75;5152003;27;20030;-62
2021/08/07 09:40:37;;;;;;;3.25;0.98;;;;;;;18.59;67.87;98299.06;5117739;27;20031;-63
2021/08/07 09:43:04;;;;;;;3.30;1.15;;;;;;;18.63;67.78;98304.72;5144257;27;20030;-63
2021/08/07 09:45:30;;;;;;;2.70;1.10;;;;;;;18.59;68.04;98304.41;5147709;27;20073;-62
2021/08/07 09:48:02;;;;;;;5.50;1.17;;;;;;;18.63;67.84;98300.19;5134562;27;20070;-62
2021/08/07 09:50:31;;;;;;;7.60;1.48;;;;;;;18.63;67.81;98299.38;5135362;27;20070;-61
2021/08/07 09:53:02;;;;;;;3.10;1.23;;;;;;;18.62;67.93;98303.91;5134703;27;20035;-62
2021/08/07 09:55:28;;;;;;;2.58;0.90;;;;;;;18.63;67.88;98302.03;5135029;27;20062;-62
2021/08/07 09:58:07;;;;;;;2.83;0.95;;;;;;;18.62;67.57;98300.44;5134929;27;20034;-63
2021/08/07 10:00:35;;;;;;;1.83;0.90;;;;;;;18.62;68.06;98305.78;5134938;27;20030;-63
2021/08/07 10:03:21;;;;;;;2.45;1.17;;;;;;;18.61;68.02;98299.63;5141627;27;20524;-62
2021/08/07 10:05:51;;;;;;;12.65;1.55;;;;;;;18.62;67.94;98295.88;5114174;27;20031;-63
2021/08/07 10:08:18;;;;;;;7.22;1.10;;;;;;;18.62;68.49;98300.44;5144959;27;20027;-62
2021/08/07 10:10:50;;;;;;;8.73;1.20;;;;;;;18.63;68.34;98297.50;5155491;27;20039;-61
2021/08/07 10:13:19;;;;;;;2.70;1.23;;;;;;;18.63;68.21;98304.72;5155325;27;20113;-62
2021/08/07 10:15:53;;;;;;;6.60;1.10;;;;;;;18.60;68.38;98298.00;5137740;27;20037;-61
2021/08/07 10:18:19;;;;;;;5.18;1.33;;;;;;;18.59;68.64;98297.19;5155183;27;20430;-62
2021/08/07 10:20:47;;;;;;;2.15;0.90;;;;;;;18.59;68.73;98299.06;5134604;27;20053;-62
2021/08/07 10:23:14;;;;;;;6.32;1.13;;;;;;;18.58;68.97;98294.78;5152812;27;20050;-62
2021/08/07 10:25:43;;;;;;;3.80;1.30;;;;;;;18.59;68.74;98302.53;5136724;27;20046;-61
2021/08/07 10:28:12;;;;;;;4.55;1.02;;;;;;;18.54;68.73;98309.72;5134440;27;20065;-63
2021/08/07 10:30:38;;;;;;;8.52;1.30;;;;;;;18.55;68.90;98306.78;5153436;27;20411;-61
2021/08/07 10:33:06;;;;;;;3.60;1.20;;;;;;;18.58;68.64;98313.50;5152839;27;20079;-62
2021/08/07 10:35:31;;;;;;;5.85;1.65;;;;;;;18.58;68.50;98310.81;5147686;27;20038;-61
2021/08/07 10:37:58;;;;;;;4.10;1.40;;;;;;;18.59;68.46;98305.22;5151684;27;20049;-61
2021/08/07 10:40:27;;;;;;;7.50;1.17;;;;;;;18.57;68.46;98306.53;5151606;27;20513;-61
2021/08/07 10:42:54;;;;;;;5.93;1.52;;;;;;;18.57;68.35;98311.88;5134353;27;20034;-61
2021/08/07 10:45:22;;;;;;;3.75;1.40;;;;;;;18.56;68.50;98318.28;5151468;27;20034;-61
2021/08/07 10:47:49;;;;;;;8.20;1.30;;;;;;;18.55;68.63;98322.03;5139726;27;20031;-62
2021/08/07 10:50:28;;;;;;;5.30;1.27;;;;;;;18.58;68.48;98314.31;5132568;28;20039;-61
2021/08/07 10:52:59;;;;;;;6.53;1.20;;;;;;;18.56;68.43;98313.75;5096451;28;20046;-59
2021/08/07 10:55:46;;;;;;;8.20;1.30;;;;;;;18.55;68.54;98312.13;5131900;28;20035;-62
2021/08/07 10:58:42;;;;;;;5.25;1.20;;;;;;;18.59;68.35;98309.75;5132253;28;20742;-61
2021/08/07 11:01:28;;;;;;;8.85;1.25;;;;;;;18.60;68.40;98312.19;5113648;28;20092;-61
2021/08/07 11:04:00;;;;;;;;;;;;;;;18.60;68.50;98312.19;5131871;28;20051;-61
2021/08/07 11:06:44;;;;;;;8.38;1.35;;;;;;;18.59;68.41;98312.44;5131467;28;19919;-61
2021/08/07 11:09:16;;;;;;;3.63;1.23;;;;;;;18.59;68.42;98313.25;5113160;28;20035;-61
2021/08/07 11:11:42;;;;;;;5.57;1.52;;;;;;;18.60;68.35;98317.53;5148648;27;20569;-62
2021/08/07 11:14:26;;;;;;;4.50;1.55;;;;;;;18.60;68.51;98306.03;5151997;27;20035;-61
2021/08/07 11:17:04;;;;;;;4.70;1.20;;;;;;;18.62;68.47;98309.25;5147211;27;20109;-62
2021/08/07 11:20:03;;;;;;;4.63;1.75;;;;;;;18.59;68.54;98312.44;5148693;27;20027;-62
2021/08/07 11:22:32;;;;;;;7.72;1.80;;;;;;;18.61;68.51;98313.00;5132811;27;20489;-65
2021/08/07 11:25:05;;;;;;;3.40;0.95;;;;;;;18.65;68.38;98310.63;5151388;27;20534;-64
2021/08/07 11:27:52;;;;;;;3.35;1.45;;;;;;;18.65;68.42;98313.31;5130520;27;20035;-64
2021/08/07 11:30:20;;;;;;;9.75;1.33;;;;;;;18.63;68.50;98308.22;5135257;27;20042;-62
2021/08/07 11:32:56;;;;;;;3.63;1.23;;;;;;;18.64;68.60;98309.00;5137033;27;20531;-62
2021/08/07 11:35:34;;;;;;;4.45;1.35;;;;;;;18.65;68.49;98321.34;5151708;27;20057;-63
2021/08/07 11:38:06;;;;;;;9.32;1.70;;;;;;;18.63;68.75;98323.44;5135201;27;20038;-64
2021/08/07 11:40:56;;;;;;;6.72;1.80;;;;;;;18.65;68.89;98318.66;5144849;27;20504;-63
2021/08/07 11:43:33;;;;;;;5.85;1.73;;;;;;;18.66;68.78;98325.63;5142995;27;20034;-64
2021/08/07 11:46:05;;;;;;;10.05;1.83;;;;;;;18.64;69.03;98319.69;5155732;27;20039;-65